Time;durP1;ratioP1;P1;durP2;ratioP2;P2;SDS_P1;SDS_P2;PMS_P1;PMS_P2;Temp;Humidity;BMP_temperature;BMP_pressure;BME280_temperature;BME280_humidity;BME280_pressure;Samples;Min_cycle;Max_cycle;Signal;HPM_P1;HPM_P2
2022/01/18 00:02:24;;;;;;;5.23;4.80;;;;;;;4.65;86.75;97001.94;4373509;32;20280;-59
2022/01/18 00:04:51;;;;;;;5.80;5.30;;;;;;;4.71;86.39;97009.78;4350860;32;20281;-59
2022/01/18 00:07:17;;;;;;;4.93;4.53;;;;;;;4.79;85.74;97009.47;4370829;32;20407;-59
2022/01/18 00:09:43;;;;;;;6.23;5.67;;;;;;;4.77;85.55;97011.56;4365208;32;20273;-59
2022/01/18 00:15:16;;;;;;;5.03;4.53;;;;;;;4.56;86.43;97011.91;4351593;32;20391;-59
2022/01/18 00:17:42;;;;;;;5.53;5.13;;;;;;;4.62;85.75;97016.28;4343823;32;20310;-59
2022/01/18 00:20:18;;;;;;;5.73;5.23;;;;;;;4.64;85.71;97016.88;4360658;32;20347;-59
2022/01/18 00:22:43;;;;;;;5.70;5.30;;;;;;;4.67;85.30;97016.47;4335545;32;20362;-59
2022/01/18 00:25:08;;;;;;;5.17;4.77;;;;;;;4.73;85.11;97026.13;4371949;32;20280;-59
2022/01/18 00:27:35;;;;;;;5.90;5.40;;;;;;;4.69;85.15;97024.94;4362426;32;22012;-59
2022/01/18 00:32:47;;;;;;;5.93;5.43;;;;;;;4.56;86.43;97029.50;4370445;32;20302;-59
2022/01/18 00:35:12;;;;;;;6.10;5.70;;;;;;;4.72;86.25;97032.41;4374794;32;20281;-59
2022/01/18 00:37:50;;;;;;;5.80;5.40;;;;;;;4.71;85.71;97038.69;4376066;32;20272;-59
2022/01/18 00:40:28;;;;;;;5.63;5.23;;;;;;;4.60;86.62;97039.34;4335807;32;20185;-59
2022/01/18 00:42:54;;;;;;;6.03;5.53;;;;;;;4.69;86.96;97043.34;4326590;32;20282;-59
2022/01/18 00:45:22;;;;;;;5.47;5.07;;;;;;;4.55;87.42;97049.72;4333824;32;20344;-59
2022/01/18 00:48:09;;;;;;;5.50;5.10;;;;;;;4.69;87.49;97055.69;4358323;32;20185;-59
2022/01/18 00:50:35;;;;;;;6.20;5.70;;;;;;;4.52;87.49;97058.03;4371049;32;20315;-60
2022/01/18 00:53:13;;;;;;;7.50;5.90;;;;;;;4.65;87.97;97065.00;4343481;32;20285;-59
2022/01/18 00:55:50;;;;;;;5.93;5.50;;;;;;;4.58;88.22;97064.22;4330107;32;20300;-59
2022/01/18 00:58:16;;;;;;;6.33;5.73;;;;;;;4.41;89.26;97063.94;4347044;32;20298;-59
2022/01/18 01:00:42;;;;;;;5.53;5.13;;;;;;;4.32;89.67;97066.00;4354952;32;20320;-59
2022/01/18 01:03:12;;;;;;;6.70;6.10;;;;;;;4.47;89.67;97068.34;4321413;32;20189;-59
2022/01/18 01:05:37;;;;;;;6.43;5.90;;;;;;;4.59;89.33;97071.09;4345386;32;20305;-59
2022/01/18 01:08:08;;;;;;;6.53;6.03;;;;;;;4.45;89.46;97076.44;4356115;32;20296;-59
2022/01/18 01:10:33;;;;;;;6.67;6.07;;;;;;;4.29;90.40;97073.50;4318119;32;20333;-59
2022/01/18 01:13:00;;;;;;;6.33;5.73;;;;;;;4.42;90.33;97073.44;4310660;32;20278;-59
2022/01/18 01:15:29;;;;;;;7.30;6.27;;;;;;;4.64;89.91;97073.91;4321220;32;20201;-59
2022/01/18 01:18:19;;;;;;;7.43;6.73;;;;;;;4.55;89.72;97080.44;4351832;32;20291;-59
2022/01/18 01:34:52;;;;;;;6.70;6.03;;;;;;;4.49;91.09;97116.25;4260423;33;20291;-59
2022/01/18 01:45:33;;;;;;;7.10;6.40;;;;;;;4.58;90.54;97112.34;4342073;32;20311;-59
2022/01/18 01:48:03;;;;;;;7.47;6.80;;;;;;;4.56;90.59;97108.34;4349586;32;20281;-59
2022/01/18 01:50:45;;;;;;;6.83;6.33;;;;;;;4.35;91.14;97112.09;4345489;32;20308;-58
2022/01/18 01:53:16;;;;;;;7.33;6.70;;;;;;;4.31;91.71;97116.12;4343600;32;20331;-58
2022/01/18 01:55:42;;;;;;;7.70;7.10;;;;;;;4.40;91.20;97109.59;4335501;32;20288;-59
2022/01/18 01:58:15;;;;;;;7.50;6.90;;;;;;;4.39;91.51;97108.00;4340326;32;20329;-66
2022/01/18 02:01:06;;;;;;;7.70;7.00;;;;;;;4.31;91.91;97105.63;4326826;32;20344;-59
2022/01/18 02:03:33;;;;;;;6.70;6.20;;;;;;;4.37;91.97;97100.31;4341626;32;20278;-59
2022/01/18 02:06:00;;;;;;;6.90;6.30;;;;;;;4.58;90.68;97091.31;4316718;32;20312;-59
2022/01/18 02:08:26;;;;;;;7.87;7.17;;;;;;;4.39;90.97;97092.22;4313374;32;20285;-59
2022/01/18 02:10:55;;;;;;;6.80;6.23;;;;;;;4.39;91.62;97084.34;4335438;32;20296;-59
2022/01/18 02:13:21;;;;;;;6.77;6.10;;;;;;;4.48;90.86;97078.66;4346340;32;20284;-59
2022/01/18 02:16:15;;;;;;;8.10;7.40;;;;;;;4.62;90.15;97086.44;4289681;33;20322;-61
2022/01/18 02:24:11;;;;;;;6.70;6.10;;;;;;;4.71;89.55;97086.00;4343370;32;20384;-59
2022/01/18 02:26:50;;;;;;;7.83;7.13;;;;;;;4.66;89.86;97080.56;4328209;32;20342;-59
2022/01/18 02:29:19;;;;;;;7.83;7.03;;;;;;;4.71;89.75;97086.00;4337429;32;20282;-65
2022/01/18 02:31:45;;;;;;;7.20;6.50;;;;;;;4.58;90.21;97077.38;4327258;32;20293;-59
2022/01/18 02:34:15;;;;;;;7.20;6.53;;;;;;;4.49;90.80;97079.47;4315665;33;20293;-59
2022/01/18 02:36:44;;;;;;;6.83;6.33;;;;;;;4.59;90.63;97082.41;4315606;33;20231;-59
2022/01/18 02:39:12;;;;;;;7.37;6.77;;;;;;;4.51;90.96;97066.13;4342256;32;20311;-59
2022/01/18 02:41:41;;;;;;;6.97;6.43;;;;;;;4.39;91.93;97061.50;4350671;32;20391;-59
2022/01/18 02:44:11;;;;;;;7.07;6.37;;;;;;;4.33;91.96;97061.56;4322791;32;20379;-59
2022/01/18 02:46:38;;;;;;;8.53;7.83;;;;;;;4.30;92.58;97067.25;4335206;32;20189;-59
2022/01/18 02:49:04;;;;;;;7.07;6.47;;;;;;;4.23;92.97;97066.44;4330062;32;20277;-59
2022/01/18 02:51:31;;;;;;;7.10;6.50;;;;;;;4.47;92.52;97065.72;4324757;32;20336;-59
2022/01/18 02:54:09;;;;;;;7.77;7.07;;;;;;;4.49;92.17;97071.56;4296235;33;20291;-59
2022/01/18 02:57:00;;;;;;;8.03;7.27;;;;;;;4.50;92.08;97078.44;4333937;32;20380;-59
2022/01/18 02:59:43;;;;;;;7.60;6.97;;;;;;;4.11;93.17;97080.25;4311140;33;20289;-59
2022/01/18 03:05:12;;;;;;;8.10;7.27;;;;;;;4.34;93.24;97076.31;4289293;33;20401;-59
2022/01/18 03:07:44;;;;;;;8.37;7.63;;;;;;;4.33;93.10;97079.97;4340810;32;20303;-59
2022/01/18 03:10:13;;;;;;;8.67;7.87;;;;;;;4.35;93.07;97075.31;4328969;33;20297;-59
2022/01/18 03:12:38;;;;;;;8.30;7.50;;;;;;;4.40;92.88;97088.59;4330150;33;20273;-59
2022/01/18 03:15:05;;;;;;;9.20;8.30;;;;;;;4.33;92.71;97091.28;4323586;32;20293;-59
2022/01/18 03:17:32;;;;;;;8.07;7.40;;;;;;;4.47;92.30;97095.44;4327100;33;20173;-59
2022/01/18 03:19:59;;;;;;;7.67;7.07;;;;;;;4.55;92.07;97096.22;4346595;32;20325;-59
2022/01/18 03:22:25;;;;;;;8.17;7.47;;;;;;;4.61;91.87;97095.34;4332630;32;20296;-59
2022/01/18 03:25:25;;;;;;;8.47;7.77;;;;;;;4.43;92.11;97098.69;4346204;32;20304;-59
2022/01/18 03:28:04;;;;;;;8.70;7.87;;;;;;;4.52;92.15;97092.19;4323404;32;20309;-59
2022/01/18 03:30:29;;;;;;;9.47;8.43;;;;;;;4.54;91.77;97094.59;4332040;33;20353;-59
2022/01/18 03:32:55;;;;;;;8.17;7.47;;;;;;;4.72;90.68;97094.69;4340105;32;20394;-59
2022/01/18 03:35:23;;;;;;;9.13;8.17;;;;;;;4.61;90.90;97095.34;4338799;32;20288;-59
2022/01/18 03:37:50;;;;;;;9.70;8.77;;;;;;;4.45;91.58;97094.03;4324835;32;20198;-60
2022/01/18 03:40:18;;;;;;;9.40;8.60;;;;;;;4.56;91.26;97096.00;4304741;33;20274;-59
2022/01/18 03:42:47;;;;;;;8.43;7.67;;;;;;;4.56;91.21;97096.00;4306015;33;20293;-59
2022/01/18 03:45:20;;;;;;;9.37;7.97;;;;;;;4.63;91.01;97096.75;4337712;32;20315;-59
2022/01/18 03:47:46;;;;;;;9.53;8.63;;;;;;;4.65;90.81;97089.47;4296963;33;20289;-61
2022/01/18 03:50:15;;;;;;;9.50;8.60;;;;;;;4.55;90.53;97097.03;4345619;32;20274;-59
2022/01/18 03:52:42;;;;;;;9.17;8.27;;;;;;;4.55;91.26;97104.09;4350936;32;20181;-59
2022/01/18 03:55:10;;;;;;;9.90;8.60;;;;;;;4.58;90.77;97101.03;4353571;32;20368;-59
2022/01/18 03:57:38;;;;;;;10.73;8.53;;;;;;;4.33;91.04;97103.59;4360569;32;20365;-59
2022/01/18 04:00:10;;;;;;;8.20;7.40;;;;;;;4.48;91.33;97101.50;4338035;32;20388;-59
2022/01/18 04:02:37;;;;;;;10.13;9.13;;;;;;;4.49;91.44;97101.28;4339956;32;20364;-59
2022/01/18 04:05:03;;;;;;;9.33;8.43;;;;;;;4.56;91.22;97103.88;4348934;32;20302;-60
2022/01/18 04:07:30;;;;;;;8.73;7.90;;;;;;;4.60;91.28;97105.06;4336804;32;20316;-59
2022/01/18 04:09:56;;;;;;;8.73;8.00;;;;;;;4.61;91.32;97108.47;4339583;32;20277;-59
2022/01/18 04:12:23;;;;;;;9.17;8.27;;;;;;;4.61;91.66;97101.41;4352660;32;20281;-59
2022/01/18 04:14:49;;;;;;;9.27;8.37;;;;;;;4.60;91.58;97105.06;4353585;32;20308;-60
2022/01/18 04:30:51;;;;;;;10.57;9.23;;;;;;;4.63;91.55;97120.41;4349463;32;20301;-59
2022/01/18 04:33:19;;;;;;;9.53;8.63;;;;;;;4.49;92.11;97121.50;4353385;32;20360;-60
2022/01/18 04:35:44;;;;;;;8.90;8.07;;;;;;;4.53;91.77;97124.53;4353388;32;20303;-59
2022/01/18 04:38:14;;;;;;;12.03;9.73;;;;;;;4.66;91.26;97127.87;4352865;32;20280;-59
2022/01/18 04:40:43;;;;;;;10.77;9.73;;;;;;;4.60;91.41;97133.97;4364427;32;20177;-59
2022/01/18 04:43:22;;;;;;;9.80;8.80;;;;;;;4.61;91.58;97121.63;4348189;32;20281;-60
2022/01/18 04:48:40;;;;;;;10.10;9.17;;;;;;;4.64;91.07;97132.53;4367488;32;20302;-59
2022/01/18 04:51:11;;;;;;;9.57;8.67;;;;;;;4.46;91.53;97135.84;4356441;32;20400;-59
2022/01/18 04:53:40;;;;;;;9.43;8.60;;;;;;;4.47;91.79;97132.22;4370481;32;20306;-59
2022/01/18 04:56:14;;;;;;;10.03;9.03;;;;;;;4.60;91.55;97138.41;4340126;32;20297;-59
2022/01/18 04:58:40;;;;;;;9.03;8.10;;;;;;;4.58;91.47;97153.56;4342380;32;20320;-60
2022/01/18 05:01:09;;;;;;;10.53;9.43;;;;;;;4.47;91.43;97141.91;4324826;32;20348;-60
2022/01/18 05:03:39;;;;;;;9.87;8.90;;;;;;;4.65;90.96;97144.66;4326216;32;20343;-60
2022/01/18 05:06:12;;;;;;;10.80;9.33;;;;;;;4.52;90.82;97142.09;4360219;32;20289;-60
2022/01/18 05:08:39;;;;;;;10.60;8.63;;;;;;;4.52;90.68;97133.41;4350076;32;20372;-59
2022/01/18 05:11:08;;;;;;;9.17;8.33;;;;;;;4.76;89.36;97141.38;4348106;32;20312;-59
2022/01/18 05:13:57;;;;;;;9.53;8.57;;;;;;;4.68;89.42;97144.25;4354061;32;20297;-59
2022/01/18 05:24:25;;;;;;;8.87;7.77;;;;;;;4.55;88.59;97133.81;4331364;32;20289;-60
2022/01/18 05:26:52;;;;;;;9.50;8.50;;;;;;;4.63;88.04;97133.53;4328592;32;20281;-60
2022/01/18 05:29:17;;;;;;;9.03;8.13;;;;;;;4.64;87.74;97136.97;4335116;32;20285;-60
2022/01/18 05:31:44;;;;;;;14.17;8.80;;;;;;;4.54;88.46;97147.16;4336650;32;20277;-59
2022/01/18 05:34:12;;;;;;;11.10;8.23;;;;;;;4.55;88.24;97144.31;4339739;32;20200;-60
2022/01/18 05:36:37;;;;;;;9.57;8.37;;;;;;;4.59;88.19;97142.84;4339801;32;20275;-59
2022/01/18 05:39:06;;;;;;;8.93;8.10;;;;;;;4.47;88.61;97147.19;4303742;32;20332;-59
2022/01/18 05:41:32;;;;;;;9.77;8.77;;;;;;;4.29;89.33;97147.06;4338864;32;20248;-59
2022/01/18 05:44:02;;;;;;;10.70;9.60;;;;;;;4.52;88.94;97144.72;4342383;32;20291;-59
2022/01/18 05:46:29;;;;;;;9.07;8.23;;;;;;;4.52;88.70;97147.34;4338002;32;20297;-60
2022/01/18 05:48:55;;;;;;;9.10;8.20;;;;;;;4.40;88.64;97154.25;4343859;32;20286;-59
2022/01/18 05:51:20;;;;;;;10.13;8.70;;;;;;;4.38;88.54;97141.34;4312561;32;20362;-60
2022/01/18 05:53:47;;;;;;;8.53;7.73;;;;;;;4.41;88.29;97153.25;4336678;32;20276;-60
2022/01/18 05:56:16;;;;;;;9.20;8.23;;;;;;;4.48;87.89;97143.53;4335821;32;20261;-60
2022/01/18 05:58:45;;;;;;;9.70;8.30;;;;;;;4.54;87.38;97145.34;4337517;32;20336;-61
2022/01/18 06:01:13;;;;;;;8.70;7.80;;;;;;;4.42;87.13;97141.72;4314866;32;20356;-60
2022/01/18 06:03:54;;;;;;;8.87;7.40;;;;;;;4.22;87.82;97144.44;4313651;32;20326;-60
2022/01/18 06:09:04;;;;;;;8.00;7.27;;;;;;;4.54;87.02;97145.34;4341861;32;20296;-61
2022/01/18 06:11:29;;;;;;;7.53;6.83;;;;;;;4.53;86.40;97150.78;4332804;32;20282;-60
2022/01/18 06:13:56;;;;;;;8.73;6.83;;;;;;;4.70;86.08;97149.28;4338192;32;20196;-60
2022/01/18 06:16:23;;;;;;;9.50;8.03;;;;;;;4.56;86.03;97156.44;4349694;32;20191;-59
2022/01/18 06:18:50;;;;;;;11.93;8.13;;;;;;;4.49;86.19;97155.66;4326446;32;20409;-60
2022/01/18 06:21:15;;;;;;;8.17;7.37;;;;;;;4.44;86.44;97158.09;4340509;32;20277;-66
2022/01/18 06:23:42;;;;;;;8.27;7.47;;;;;;;4.40;86.85;97162.16;4335765;32;20293;-60
2022/01/18 06:26:14;;;;;;;10.40;7.93;;;;;;;4.53;86.16;97166.56;4333708;32;20264;-60
2022/01/18 06:28:39;;;;;;;9.67;7.53;;;;;;;4.70;85.70;97168.50;4326056;32;20281;-60
2022/01/18 06:31:05;;;;;;;10.13;8.97;;;;;;;4.59;85.19;97171.75;4336963;32;20730;-60
2022/01/18 06:33:32;;;;;;;8.80;7.90;;;;;;;4.54;85.58;97173.44;4276037;33;20189;-60
2022/01/18 06:36:06;;;;;;;8.93;8.13;;;;;;;4.47;86.05;97176.06;4330067;32;20207;-60
2022/01/18 06:38:32;;;;;;;8.10;7.30;;;;;;;4.54;86.49;97187.38;4350806;32;20277;-60
2022/01/18 06:40:58;;;;;;;10.53;9.07;;;;;;;4.49;86.68;97187.19;4339924;32;20277;-60
2022/01/18 06:43:24;;;;;;;11.33;8.83;;;;;;;4.36;87.35;97188.06;4341728;32;20194;-60
2022/01/18 06:45:50;;;;;;;9.63;8.33;;;;;;;4.22;88.54;97196.16;4343303;32;20241;-60
2022/01/18 06:48:17;;;;;;;10.10;8.63;;;;;;;4.24;88.83;97202.03;4337382;32;20278;-62
2022/01/18 06:50:42;;;;;;;9.40;8.40;;;;;;;4.49;88.17;97205.59;4326039;33;20321;-60
2022/01/18 06:53:09;;;;;;;9.87;8.93;;;;;;;4.22;89.17;97214.53;4317290;32;20285;-60
2022/01/18 06:55:35;;;;;;;9.90;8.83;;;;;;;4.37;89.02;97215.09;4312521;32;20182;-60
2022/01/18 06:58:02;;;;;;;12.60;9.33;;;;;;;4.25;89.60;97228.06;4341319;32;20276;-60
2022/01/18 07:00:27;;;;;;;10.67;9.03;;;;;;;4.28;89.73;97230.31;4318806;32;20189;-60
2022/01/18 07:02:52;;;;;;;10.63;9.07;;;;;;;4.36;89.92;97237.16;4339745;32;20292;-60
2022/01/18 07:05:18;;;;;;;10.17;8.97;;;;;;;4.35;89.68;97233.72;4344308;32;20190;-60
2022/01/18 07:07:47;;;;;;;11.07;9.87;;;;;;;4.37;89.74;97230.88;4328941;32;20184;-59
2022/01/18 07:10:15;;;;;;;11.73;9.17;;;;;;;4.51;88.78;97232.47;4314042;33;20198;-60
2022/01/18 07:12:40;;;;;;;10.90;9.73;;;;;;;4.40;88.97;97233.87;4346271;32;20277;-60
2022/01/18 07:15:07;;;;;;;12.00;9.17;;;;;;;4.43;89.11;97240.56;4341980;32;20355;-60
2022/01/18 07:17:35;;;;;;;10.43;9.43;;;;;;;4.41;89.41;97239.97;4356124;32;20186;-60
2022/01/18 07:20:01;;;;;;;11.83;9.93;;;;;;;4.45;89.27;97239.34;4353377;32;20291;-60
2022/01/18 07:22:28;;;;;;;12.17;9.77;;;;;;;4.52;88.86;97239.34;4345662;32;20274;-60
2022/01/18 07:24:58;;;;;;;10.83;9.53;;;;;;;4.49;88.95;97247.63;4346328;32;20231;-60
2022/01/18 07:27:24;;;;;;;11.77;9.87;;;;;;;4.52;89.05;97249.84;4360759;32;20356;-60
2022/01/18 07:29:50;;;;;;;9.47;8.33;;;;;;;4.56;88.97;97247.63;4319610;32;20296;-61
2022/01/18 07:32:16;;;;;;;10.37;9.07;;;;;;;4.59;88.53;97255.06;4323917;32;20181;-60
2022/01/18 07:34:52;;;;;;;9.73;8.67;;;;;;;4.43;88.39;97245.81;4300049;33;20279;-60
2022/01/18 07:37:20;;;;;;;9.30;8.37;;;;;;;4.65;88.01;97252.41;4290551;32;20277;-59
2022/01/18 07:39:45;;;;;;;35.87;10.10;;;;;;;4.47;88.24;97255.72;4339725;32;20289;-59
2022/01/18 07:42:11;;;;;;;30.73;8.73;;;;;;;5.38;91.95;97252.88;4348146;32;20285;-59
2022/01/18 07:44:37;;;;;;;16.47;8.23;;;;;;;6.03;91.71;97252.59;4341693;32;20260;-59
2022/01/18 07:47:04;;;;;;;13.43;8.07;;;;;;;6.21;86.99;97263.19;4335854;32;20201;-60
2022/01/18 07:49:32;;;;;;;9.17;7.40;;;;;;;6.55;83.78;97267.09;4340564;32;20293;-58
2022/01/18 07:51:57;;;;;;;11.63;7.67;;;;;;;6.76;82.69;97279.84;4343645;32;20297;-59
2022/01/18 07:54:23;;;;;;;11.83;7.27;;;;;;;6.93;81.54;97284.53;4336164;32;20288;-59
2022/01/18 07:56:48;;;;;;;12.80;7.03;;;;;;;7.12;79.99;97278.19;4339175;32;20217;-59
2022/01/18 07:59:13;;;;;;;10.60;6.53;;;;;;;7.22;78.53;97284.56;4318034;32;20165;-59
2022/01/18 08:01:41;;;;;;;8.70;6.40;;;;;;;7.19;76.89;97284.22;4354267;32;20184;-60
2022/01/18 08:04:13;;;;;;;10.07;6.50;;;;;;;7.33;76.59;97284.81;4345604;32;20396;-59
2022/01/18 08:06:38;;;;;;;7.03;5.90;;;;;;;7.29;76.50;97289.75;4336143;32;20304;-59
2022/01/18 08:09:05;;;;;;;7.77;6.03;;;;;;;7.37;75.16;97286.81;4344326;32;20285;-59
2022/01/18 08:11:30;;;;;;;6.63;5.97;;;;;;;7.44;75.08;97287.53;4360505;32;20169;-59
2022/01/18 08:13:57;;;;;;;7.77;6.27;;;;;;;7.55;74.87;97278.03;4338185;32;20315;-59
2022/01/18 08:19:01;;;;;;;6.50;5.90;;;;;;;7.86;73.82;97283.06;4342064;32;20274;-59
2022/01/18 08:21:28;;;;;;;6.33;5.70;;;;;;;7.96;73.94;97287.75;4338355;32;20347;-59
2022/01/18 08:23:54;;;;;;;9.50;6.77;;;;;;;7.96;73.11;97285.13;4344132;32;20275;-59
2022/01/18 08:26:20;;;;;;;9.77;6.13;;;;;;;7.89;72.03;97277.31;4337953;32;20280;-59
2022/01/18 08:28:46;;;;;;;9.17;6.17;;;;;;;7.98;72.06;97288.34;4330116;32;20189;-60
2022/01/18 08:31:16;;;;;;;9.00;6.40;;;;;;;7.91;73.10;97287.63;4322791;32;20206;-58
2022/01/18 08:33:44;;;;;;;9.27;7.47;;;;;;;7.84;71.89;97286.94;4353954;32;20286;-59
2022/01/18 08:36:10;;;;;;;7.90;6.93;;;;;;;7.56;72.66;97277.78;4321722;32;20270;-59
2022/01/18 08:38:39;;;;;;;8.63;6.20;;;;;;;7.75;72.15;97283.00;4316191;32;20401;-59
2022/01/18 08:41:06;;;;;;;8.47;6.53;;;;;;;7.86;71.94;97275.13;4324646;32;20381;-59
2022/01/18 08:43:36;;;;;;;6.40;5.80;;;;;;;7.99;70.83;97287.31;4321013;32;20300;-60
2022/01/18 08:46:04;;;;;;;9.03;6.20;;;;;;;8.10;71.41;97283.91;4307939;32;20296;-59
2022/01/18 08:48:29;;;;;;;8.90;5.90;;;;;;;8.23;70.24;97274.91;4351445;32;20324;-59
2022/01/18 08:51:00;;;;;;;7.63;6.20;;;;;;;8.20;69.61;97270.09;4352347;32;20303;-59
2022/01/18 08:53:27;;;;;;;10.17;6.60;;;;;;;8.41;69.31;97280.13;4353863;32;20188;-59
2022/01/18 08:55:53;;;;;;;11.33;7.87;;;;;;;8.65;69.20;97278.28;4349824;32;20297;-59
2022/01/18 08:58:21;;;;;;;8.93;7.13;;;;;;;8.69;69.10;97278.63;4348650;32;20320;-59
2022/01/18 09:00:47;;;;;;;10.80;6.47;;;;;;;8.83;69.10;97286.06;4344385;32;20420;-59
2022/01/18 09:03:13;;;;;;;8.03;6.73;;;;;;;8.97;67.62;97281.28;4339618;32;20278;-59
2022/01/18 09:05:39;;;;;;;8.13;7.30;;;;;;;9.23;67.16;97287.91;4321335;32;20207;-59
2022/01/18 09:08:11;;;;;;;9.57;8.20;;;;;;;9.16;67.22;97290.69;4345464;32;20317;-60
2022/01/18 09:10:37;;;;;;;9.43;7.90;;;;;;;8.25;68.77;97294.00;4334218;32;20296;-60
2022/01/18 09:13:05;;;;;;;9.90;8.40;;;;;;;8.00;70.04;97293.41;4333213;32;20344;-60
2022/01/18 09:15:34;;;;;;;8.60;7.70;;;;;;;7.85;70.94;97294.66;4329914;32;20182;-60
2022/01/18 09:18:00;;;;;;;8.80;7.97;;;;;;;7.53;71.74;97295.91;4325381;32;20418;-60
2022/01/18 09:20:26;;;;;;;8.50;7.70;;;;;;;7.28;73.30;97306.59;4332956;32;20285;-60
2022/01/18 09:22:56;;;;;;;8.23;7.27;;;;;;;7.29;73.33;97300.31;4337832;32;20371;-59
2022/01/18 09:25:26;;;;;;;8.83;6.80;;;;;;;6.92;75.00;97304.03;4338024;32;20257;-60
2022/01/18 09:27:53;;;;;;;7.53;6.80;;;;;;;7.13;73.91;97306.19;4303078;32;20294;-60
2022/01/18 09:30:19;;;;;;;7.93;7.13;;;;;;;6.96;73.25;97315.75;4317389;32;20290;-62
2022/01/18 09:32:47;;;;;;;15.60;6.53;;;;;;;6.58;74.48;97314.12;4354385;32;20304;-62
2022/01/18 09:35:15;;;;;;;11.37;7.10;;;;;;;6.40;75.78;97316.75;4311495;32;20287;-60
2022/01/18 09:37:43;;;;;;;9.37;6.37;;;;;;;6.15;76.53;97322.03;4327163;32;20296;-61
2022/01/18 09:40:10;;;;;;;9.80;5.83;;;;;;;6.08;76.36;97316.78;4367516;32;20277;-60
2022/01/18 09:42:40;;;;;;;6.27;5.50;;;;;;;6.31;75.95;97320.66;4355388;32;20372;-63
2022/01/18 09:45:10;;;;;;;9.37;6.17;;;;;;;6.09;76.72;97317.59;4336427;32;20308;-59
2022/01/18 09:47:42;;;;;;;7.03;5.67;;;;;;;6.46;75.99;97316.66;4325121;32;20281;-62
2022/01/18 09:50:11;;;;;;;6.83;5.30;;;;;;;6.16;76.05;97318.37;4347203;32;20352;-63
2022/01/18 09:52:38;;;;;;;7.27;5.00;;;;;;;6.22;76.84;97321.97;4311943;32;20333;-63
2022/01/18 09:55:07;;;;;;;7.73;4.97;;;;;;;6.11;77.35;97321.62;4309320;32;20286;-63
2022/01/18 09:57:36;;;;;;;11.47;6.03;;;;;;;6.03;77.47;97319.25;4294625;32;20288;-62
2022/01/18 10:00:10;;;;;;;9.90;6.13;;;;;;;5.91;78.00;97328.88;4340822;32;20288;-61
2022/01/18 10:02:35;;;;;;;6.40;5.33;;;;;;;5.94;78.04;97322.38;4340524;32;20325;-66
2022/01/18 10:05:22;;;;;;;7.70;5.37;;;;;;;5.88;79.21;97313.47;4343887;32;20329;-64
2022/01/18 10:08:16;;;;;;;9.63;5.87;;;;;;;6.05;78.78;97309.31;4330291;32;20200;-60
2022/01/18 10:11:13;;;;;;;9.67;6.07;;;;;;;5.93;78.48;97315.50;4349709;32;20388;-61
2022/01/18 10:13:39;;;;;;;8.17;5.93;;;;;;;5.88;79.37;97308.22;4324864;32;20359;-61
2022/01/18 10:16:13;;;;;;;8.73;5.80;;;;;;;5.89;79.17;97303.78;4338192;32;20277;-61
2022/01/18 10:19:03;;;;;;;9.07;5.93;;;;;;;6.02;79.45;97309.78;4342370;32;20197;-60
2022/01/18 10:21:35;;;;;;;6.40;5.70;;;;;;;5.60;80.49;97313.09;4332666;32;20289;-60
2022/01/18 10:24:25;;;;;;;10.27;6.67;;;;;;;5.85;80.13;97306.00;4317809;32;20325;-62
2022/01/18 10:26:53;;;;;;;9.50;6.20;;;;;;;5.93;80.00;97307.59;4336909;32;20335;-61
2022/01/18 10:29:24;;;;;;;8.27;6.37;;;;;;;5.95;79.60;97306.38;4327419;32;20356;-61
2022/01/18 10:31:57;;;;;;;7.67;6.10;;;;;;;5.86;80.30;97307.62;4344687;32;20337;-59
2022/01/18 10:37:26;;;;;;;6.57;5.97;;;;;;;5.77;80.89;97303.66;4318056;32;20294;-63
2022/01/18 10:40:19;;;;;;;11.37;6.60;;;;;;;5.66;82.04;97296.41;4334485;32;20338;-64
2022/01/18 10:42:51;;;;;;;8.47;6.50;;;;;;;5.91;81.54;97280.66;4355609;32;20276;-63
2022/01/18 10:45:29;;;;;;;6.93;5.93;;;;;;;5.82;81.11;97288.00;4336764;32;20329;-62
2022/01/18 10:48:12;;;;;;;8.03;6.67;;;;;;;5.79;81.30;97277.91;4347636;32;20297;-63
2022/01/18 10:50:42;;;;;;;7.10;5.70;;;;;;;5.90;81.01;97279.87;4354189;32;20289;-60
2022/01/18 10:53:20;;;;;;;6.33;5.33;;;;;;;5.94;80.76;97270.53;4334754;32;20315;-61
2022/01/18 10:55:52;;;;;;;6.17;3.43;;;;;;;5.97;80.44;97272.72;4351391;32;20304;-61
2022/01/18 10:58:20;;;;;;;4.43;3.40;;;;;;;5.63;79.37;97262.59;4317249;32;20297;-60
2022/01/18 11:00:50;;;;;;;5.67;3.30;;;;;;;5.89;78.90;97262.44;4319839;32;20344;-62
2022/01/18 11:03:16;;;;;;;3.70;3.40;;;;;;;5.84;78.58;97254.34;4336229;32;20335;-62
2022/01/18 11:05:43;;;;;;;4.93;3.57;;;;;;;5.82;78.46;97251.94;4327674;32;20353;-62
2022/01/18 11:08:15;;;;;;;3.23;2.83;;;;;;;5.90;77.99;97248.25;4326034;32;20207;-63
2022/01/18 11:10:50;;;;;;;5.13;3.30;;;;;;;6.08;77.68;97245.66;4292222;32;20324;-61
2022/01/18 11:13:23;;;;;;;3.40;2.97;;;;;;;6.01;77.17;97244.13;4306632;32;20294;-62
2022/01/18 11:15:52;;;;;;;3.40;3.20;;;;;;;6.12;77.08;97236.31;4340319;32;20286;-61
2022/01/18 11:18:28;;;;;;;6.00;3.70;;;;;;;6.10;76.67;97235.72;4297629;33;20345;-61
2022/01/18 11:20:56;;;;;;;5.63;3.53;;;;;;;6.09;76.41;97236.75;4331965;32;20307;-62
2022/01/18 11:23:24;;;;;;;4.33;3.20;;;;;;;5.80;77.19;97234.75;4362387;32;20289;-61
2022/01/18 11:25:52;;;;;;;5.20;4.03;;;;;;;6.08;77.42;97227.22;4335771;32;20315;-61
2022/01/18 11:28:24;;;;;;;3.40;3.10;;;;;;;6.07;76.55;97227.44;4345617;32;20297;-61
2022/01/18 11:30:50;;;;;;;7.87;3.10;;;;;;;5.84;76.51;97220.13;4309194;32;20349;-61
2022/01/18 11:33:20;;;;;;;4.37;3.67;;;;;;;5.89;75.97;97216.88;4332002;32;20302;-61
2022/01/18 11:35:54;;;;;;;5.30;3.13;;;;;;;5.86;76.94;97215.44;4310002;32;20313;-61
2022/01/18 11:38:36;;;;;;;4.97;2.80;;;;;;;5.97;76.07;97220.03;4334292;32;20317;-61
2022/01/18 11:41:06;;;;;;;5.30;2.43;;;;;;;6.19;74.80;97215.97;4344789;32;20304;-61
2022/01/18 11:43:42;;;;;;;4.60;2.73;;;;;;;6.27;73.96;97211.44;4347726;32;20360;-61
2022/01/18 11:46:27;;;;;;;3.07;1.90;;;;;;;6.37;73.78;97222.28;4312336;32;20339;-62
2022/01/18 11:49:11;;;;;;;4.87;2.10;;;;;;;6.25;71.04;97218.75;4327229;32;20286;-61
2022/01/18 11:51:38;;;;;;;5.37;2.90;;;;;;;6.13;71.31;97216.84;4321838;32;20353;-62
2022/01/18 11:54:57;;;;;;;3.67;2.67;;;;;;;6.04;72.25;97222.59;4345872;32;20296;-61
2022/01/18 11:57:27;;;;;;;7.17;3.03;;;;;;;6.06;71.93;97221.38;4330684;32;20286;-61
2022/01/18 12:00:32;;;;;;;3.63;2.60;;;;;;;5.94;72.78;97212.56;4309418;32;20287;-62
2022/01/18 12:03:16;;;;;;;5.07;3.23;;;;;;;6.24;72.66;97209.22;4322199;32;20390;-61
2022/01/18 12:05:45;;;;;;;6.23;3.00;;;;;;;6.35;72.24;97205.88;4353943;32;20300;-60
2022/01/18 12:08:30;;;;;;;4.73;2.97;;;;;;;6.52;71.57;97210.34;4342786;32;20347;-61
2022/01/18 12:10:56;;;;;;;5.67;2.97;;;;;;;6.70;71.59;97201.59;4297788;32;20392;-62
2022/01/18 12:13:27;;;;;;;6.18;3.60;;;;;;;6.34;71.70;97202.44;4329840;32;20141;-59
2022/01/18 12:15:56;;;;;;;9.90;3.60;;;;;;;6.34;72.80;97197.16;4318798;32;20203;-59
2022/01/18 12:18:29;;;;;;;8.27;3.67;;;;;;;6.59;72.11;97197.09;4327630;32;20302;-62
2022/01/18 12:21:00;;;;;;;4.10;3.03;;;;;;;6.89;71.31;97189.19;4325474;32;20357;-59
2022/01/18 12:23:32;;;;;;;8.37;3.20;;;;;;;7.07;70.72;97202.34;4337831;32;20375;-63
2022/01/18 12:26:30;;;;;;;6.70;3.17;;;;;;;6.85;71.30;97199.41;4319855;32;20353;-60
2022/01/18 12:34:38;;;;;;;8.87;3.80;;;;;;;6.90;71.55;97180.25;4302134;33;20284;-59
2022/01/18 12:39:51;;;;;;;6.73;3.17;;;;;;;6.72;72.23;97182.94;4325107;32;20287;-62
2022/01/18 12:45:25;;;;;;;6.03;3.20;;;;;;;6.28;71.25;97186.69;4342256;32;20381;-63
2022/01/18 12:47:57;;;;;;;6.27;3.27;;;;;;;6.14;70.81;97184.22;4286666;32;20338;-59
2022/01/18 12:50:51;;;;;;;7.67;3.63;;;;;;;6.36;71.20;97181.94;4343169;32;20348;-61
2022/01/18 12:53:22;;;;;;;7.70;3.47;;;;;;;6.60;71.01;97182.06;4335809;32;20296;-60
2022/01/18 12:56:11;;;;;;;7.07;2.97;;;;;;;6.57;70.20;97191.22;4336703;32;20305;-60
2022/01/18 12:58:45;;;;;;;4.23;2.63;;;;;;;6.53;69.70;97182.94;4343562;32;20300;-60
2022/01/18 13:01:27;;;;;;;6.70;2.67;;;;;;;6.49;69.83;97184.41;4346624;32;20307;-60
2022/01/18 13:03:59;;;;;;;7.57;3.30;;;;;;;6.59;69.20;97183.09;4341809;32;20315;-60
2022/01/18 13:06:30;;;;;;;6.87;3.47;;;;;;;6.58;68.68;97182.28;4343122;32;20377;-59
2022/01/18 13:09:02;;;;;;;5.03;3.07;;;;;;;6.32;69.58;97188.66;4336023;32;20458;-59
2022/01/18 13:11:42;;;;;;;8.93;3.90;;;;;;;6.22;70.53;97192.84;4353034;32;20296;-61
2022/01/18 13:14:12;;;;;;;6.87;4.12;;;;;;;6.39;70.53;97194.69;4316058;32;20148;-60
2022/01/18 13:25:03;;;;;;;8.07;3.17;;;;;;;11.81;69.11;97175.72;4326464;32;20383;-61